createdAt,value
2022-08-18T00:04:35.260Z,18.23
2022-08-18T00:09:41.570Z,17.42
2022-08-18T00:14:45.538Z,18.35
2022-08-18T00:19:50.745Z,17.15
2022-08-18T00:24:57.502Z,18.05
2022-08-18T00:30:02.942Z,18.65
2022-08-18T00:35:11.068Z,18.00
2022-08-18T00:40:17.618Z,17.98
2022-08-18T00:45:25.468Z,18.27
2022-08-18T00:50:35.960Z,18.40
2022-08-18T00:55:40.397Z,18.50
2022-08-18T01:00:55.077Z,19.65
2022-08-18T01:06:03.421Z,20.02
2022-08-18T01:11:06.773Z,19.58
2022-08-18T01:16:24.159Z,19.90
2022-08-18T01:21:48.311Z,21.23
2022-08-18T01:26:53.457Z,21.40
2022-08-18T01:31:56.977Z,19.70
2022-08-18T01:37:00.453Z,22.10
2022-08-18T01:42:05.726Z,21.95
2022-08-18T01:47:10.882Z,21.75
2022-08-18T01:52:21.192Z,22.75
2022-08-18T01:57:26.310Z,24.08
2022-08-18T02:02:34.042Z,23.70
2022-08-18T02:07:38.176Z,23.70
2022-08-18T02:12:45.384Z,24.30
2022-08-18T02:17:48.753Z,26.98
2022-08-18T02:22:52.801Z,26.02
2022-08-18T02:27:57.767Z,24.88
2022-08-18T02:33:01.760Z,24.75
2022-08-18T02:38:07.837Z,24.80
2022-08-18T02:43:12.562Z,25.42
2022-08-18T02:48:16.001Z,24.88
2022-08-18T02:53:23.235Z,24.50
2022-08-18T02:58:31.813Z,23.92
2022-08-18T03:03:37.512Z,24.15
2022-08-18T03:08:40.802Z,23.45
2022-08-18T04:20:59.182Z,25.00
2022-08-18T04:26:05.774Z,25.13
2022-08-18T04:31:12.253Z,24.15
2022-08-18T04:36:18.750Z,24.70
2022-08-18T04:41:27.818Z,24.27
2022-08-18T04:46:36.242Z,24.33
2022-08-18T04:52:37.170Z,23.17
2022-08-18T04:57:12.012Z,24.73
2022-08-18T05:02:18.575Z,23.35
2022-08-18T05:07:23.931Z,22.15
2022-08-18T05:12:27.448Z,22.92
2022-08-18T05:17:31.361Z,23.50
2022-08-18T05:22:40.855Z,24.60
2022-08-18T05:27:45.160Z,23.38
2022-08-18T05:32:50.504Z,22.65
2022-08-18T05:38:18.284Z,65.80
2022-08-18T05:43:22.146Z,25.88
2022-08-18T05:48:25.963Z,22.40
2022-08-18T05:53:45.439Z,22.88
2022-08-18T05:58:53.039Z,22.10
2022-08-18T06:04:04.086Z,23.77
2022-08-18T06:09:14.395Z,20.90
2022-08-18T06:14:19.138Z,20.48
2022-08-18T06:19:43.382Z,18.10
2022-08-18T06:24:55.327Z,18.00
2022-08-18T06:30:08.551Z,15.65
2022-08-18T06:35:22.349Z,17.70
2022-08-18T06:40:28.032Z,14.82
2022-08-18T06:45:39.974Z,13.63
2022-08-18T06:50:51.901Z,12.02
2022-08-18T06:55:57.233Z,11.38
2022-08-18T07:01:03.601Z,11.00
2022-08-18T07:06:11.657Z,9.70
2022-08-18T07:11:22.287Z,9.75
2022-08-18T07:16:54.951Z,9.77
2022-08-18T07:22:04.033Z,9.77
2022-08-18T07:27:11.510Z,9.80
2022-08-18T07:32:22.288Z,10.15
2022-08-18T07:37:34.658Z,10.18
2022-08-18T07:43:01.184Z,10.68
2022-08-18T07:48:37.104Z,10.07
2022-08-18T07:53:55.916Z,10.38
2022-08-18T07:59:09.204Z,9.68
2022-08-18T08:04:25.735Z,9.02
2022-08-18T08:09:39.409Z,9.10
2022-08-18T08:14:46.635Z,9.30
2022-08-18T08:20:04.152Z,10.50
2022-08-18T08:25:44.656Z,9.23
2022-08-18T08:31:05.202Z,10.07
2022-08-18T08:36:25.764Z,10.32
2022-08-18T08:41:35.573Z,8.65
2022-08-18T08:46:47.269Z,8.00
2022-08-18T08:51:58.210Z,7.55
2022-08-18T08:57:04.321Z,7.82
2022-08-18T09:02:46.798Z,7.95
2022-08-18T09:08:15.245Z,7.18
2022-08-18T09:13:39.061Z,8.05
2022-08-18T09:18:55.059Z,7.47
2022-08-18T09:24:10.896Z,7.50
2022-08-18T09:29:21.972Z,8.27
2022-08-18T09:34:45.310Z,8.02
2022-08-18T09:40:19.003Z,8.10
2022-08-18T09:45:57.593Z,7.97
2022-08-18T09:51:39.945Z,7.53
2022-08-18T09:57:19.275Z,8.85
2022-08-18T10:03:10.425Z,7.93
2022-08-18T10:08:48.591Z,7.20
2022-08-18T10:14:07.093Z,7.50
2022-08-18T10:19:23.165Z,7.90
2022-08-18T10:24:46.055Z,6.43
2022-08-18T10:29:55.533Z,7.65
2022-08-18T10:35:00.202Z,8.35
2022-08-18T10:40:16.358Z,7.38
2022-08-18T10:45:27.874Z,7.53
2022-08-18T10:50:39.454Z,7.68
2022-08-18T10:55:53.791Z,7.55
2022-08-18T11:01:08.848Z,8.07
2022-08-18T11:06:21.619Z,7.95
2022-08-18T11:11:38.230Z,7.35
2022-08-18T11:16:54.029Z,7.67
2022-08-18T11:21:57.727Z,8.57
2022-08-18T11:27:09.774Z,9.40
2022-08-18T11:32:25.241Z,8.23
2022-08-18T11:37:48.528Z,8.63
2022-08-18T11:42:59.972Z,7.60
2022-08-18T11:53:58.250Z,7.82
2022-08-18T11:59:05.459Z,7.65
2022-08-18T12:04:16.759Z,7.75
2022-08-18T12:15:04.868Z,8.02
2022-08-18T12:20:17.285Z,6.95
2022-08-18T12:25:25.467Z,6.95
2022-08-18T12:30:30.525Z,7.60
2022-08-18T12:35:35.637Z,7.55
2022-08-18T12:40:40.154Z,7.35
2022-08-18T12:45:46.389Z,6.45
2022-08-18T12:50:58.398Z,6.50
2022-08-18T12:56:04.357Z,7.47
2022-08-18T13:01:09.258Z,6.80
2022-08-18T13:06:14.972Z,7.55
2022-08-18T13:11:24.852Z,7.00
2022-08-18T13:16:53.483Z,6.15
2022-08-18T13:21:58.274Z,6.50
2022-08-18T13:27:03.937Z,6.38
2022-08-18T13:37:28.661Z,5.75
2022-08-18T13:42:50.332Z,6.20
2022-08-18T13:47:58.315Z,6.15
2022-08-18T13:53:02.317Z,6.43
2022-08-18T13:58:20.488Z,6.25
2022-08-18T14:03:42.557Z,7.00
2022-08-18T14:08:52.393Z,6.53
2022-08-18T14:13:57.803Z,6.50
2022-08-18T14:19:22.977Z,6.57
2022-08-18T14:24:48.931Z,6.38
2022-08-18T14:29:55.222Z,6.25
2022-08-18T14:36:04.096Z,6.50
2022-08-18T14:40:25.417Z,7.20
2022-08-18T14:45:35.452Z,6.57
2022-08-18T14:50:47.870Z,7.05
2022-08-18T14:55:54.920Z,6.78
2022-08-18T15:01:01.131Z,6.88
2022-08-18T15:06:07.306Z,6.57
2022-08-18T15:11:12.046Z,6.47
2022-08-18T15:16:17.436Z,7.82
2022-08-18T15:21:39.622Z,6.90
2022-08-18T15:26:43.994Z,6.65
2022-08-18T15:31:50.783Z,6.18
2022-08-18T15:36:55.849Z,6.85
2022-08-18T15:41:59.863Z,5.95
2022-08-18T15:47:09.330Z,7.57
2022-08-18T15:52:14.637Z,6.88
2022-08-18T15:57:35.225Z,6.25
2022-08-18T16:02:44.658Z,7.15
2022-08-18T16:07:56.606Z,6.15
2022-08-18T16:13:01.779Z,6.27
2022-08-18T16:18:06.749Z,7.00
2022-08-18T16:23:12.287Z,6.43
2022-08-18T16:28:15.721Z,7.68
2022-08-18T16:33:19.256Z,7.30
2022-08-18T16:38:24.216Z,6.50
2022-08-18T16:43:27.696Z,6.35
2022-08-18T16:48:31.254Z,6.63
2022-08-18T16:53:39.786Z,6.13
2022-08-18T16:59:01.321Z,7.72
2022-08-18T17:04:13.394Z,7.07
2022-08-18T17:09:19.784Z,7.00
2022-08-18T17:14:27.906Z,7.47
2022-08-18T17:19:33.701Z,7.22
2022-08-18T17:24:42.642Z,6.80
2022-08-18T17:30:01.612Z,6.75
2022-08-18T17:35:07.362Z,7.40
2022-08-18T17:40:18.046Z,6.65
2022-08-18T17:45:23.303Z,7.07
2022-08-18T17:50:51.896Z,7.47
2022-08-18T17:56:01.572Z,7.40
2022-08-18T18:01:07.729Z,7.53
2022-08-18T18:06:18.411Z,7.70
2022-08-18T18:11:32.183Z,7.32
2022-08-18T18:16:36.044Z,7.57
2022-08-18T18:22:00.200Z,8.55
2022-08-18T18:27:25.127Z,8.10
2022-08-18T18:32:31.977Z,8.15
2022-08-18T18:37:47.151Z,7.30
2022-08-18T18:42:52.413Z,8.52
2022-08-18T18:48:06.556Z,8.27
2022-08-18T18:53:25.857Z,8.38
2022-08-18T18:58:45.056Z,7.82
2022-08-18T19:03:58.920Z,8.35
2022-08-18T19:09:10.321Z,8.95
2022-08-18T19:14:19.807Z,7.60
2022-08-18T19:19:38.365Z,8.77
2022-08-18T19:24:50.806Z,9.20
2022-08-18T19:30:02.955Z,8.23
2022-08-18T19:35:12.292Z,8.40
2022-08-18T19:40:20.402Z,8.40
2022-08-18T19:45:33.034Z,8.13
2022-08-18T19:50:43.198Z,8.25
2022-08-18T19:56:02.609Z,8.75
2022-08-18T20:06:52.159Z,8.57
2022-08-18T20:12:11.505Z,7.95
2022-08-18T20:17:20.301Z,7.90
2022-08-18T20:22:34.570Z,8.18
2022-08-18T20:27:40.371Z,8.07
2022-08-18T20:32:45.120Z,7.72
2022-08-18T20:37:48.592Z,7.70
2022-08-18T20:42:57.565Z,8.75
2022-08-18T20:48:29.143Z,8.30
2022-08-18T20:53:53.535Z,8.02
2022-08-18T20:59:08.934Z,7.90
2022-08-18T21:04:13.887Z,7.32
2022-08-18T21:09:19.046Z,8.05
2022-08-18T21:14:27.157Z,8.15
2022-08-18T21:19:42.216Z,7.53
2022-08-18T21:24:49.923Z,7.05
2022-08-18T21:29:54.592Z,7.57
2022-08-18T21:35:07.901Z,7.55
2022-08-18T21:40:13.930Z,6.97
2022-08-18T21:45:23.626Z,8.00
2022-08-18T21:50:30.653Z,7.82
2022-08-18T21:55:39.887Z,7.90
2022-08-18T22:00:45.668Z,7.75
2022-08-18T22:06:00.847Z,7.80
2022-08-18T22:12:02.577Z,7.82
2022-08-18T22:17:30.322Z,8.85
2022-08-18T22:22:53.791Z,8.10
2022-08-18T22:28:00.505Z,7.78
2022-08-18T22:33:03.842Z,9.40
2022-08-18T22:38:08.676Z,8.23
2022-08-18T22:43:12.241Z,8.65
2022-08-18T22:48:16.576Z,9.00
2022-08-18T22:53:21.809Z,9.20
2022-08-18T22:58:28.219Z,8.88
2022-08-18T23:03:31.955Z,9.23
2022-08-18T23:08:55.635Z,9.73
2022-08-18T23:19:04.643Z,8.90
2022-08-18T23:24:10.772Z,10.23
2022-08-18T23:29:14.742Z,9.55
2022-08-18T23:34:19.922Z,9.77
2022-08-18T23:39:26.514Z,9.10
2022-08-18T23:44:30.551Z,10.10
2022-08-18T23:49:36.511Z,10.23
2022-08-18T23:54:41.195Z,9.90
2022-08-18T23:59:44.507Z,10.73
